sim
Sign-in with your pilot id or email,
or register
Callsign
Passwort

Schedule Details

Flight Number: RYR1528
Departure: Luqa Malta International Airport (LMML) at 16:05
Arrival: Bratislava M. R. Stefanik Airport (LZIB) at 18:25
Route: Ryanair Passenger Schedule. Enter filed route here before submitting Pirep.

Weather Information
Getting current METAR information for LMML 231945Z 15008KT 9999 FEW030 21/16 Q1018 NOSIG
Getting current METAR information for LZIB 232000Z 05007KT CAVOK 13/10 Q1017

Schedule Frequency

Route Map